Terminal Aerodrome Forecast
Issued by NWS

Current Version | Previous Version | Text Only | Print | Product List | Glossary On
Versions: 1 2 3 4 5 6 7 8 9 10 11 12
961
FTUS45 KABQ 271123
TAFTCC
TAF
KTCC 271123Z 2712/2812 18010KT P6SM VCTS BKN080CB
     FM271400 04007KT P6SM VCSH BKN060
     FM271800 08010KT 6SM -RA BR OVC040
     FM280000 06009KT P6SM VCSH OVC050=

USA.gov is the U.S. government's official web portal to all federal, state and local government web resources and services.